Nearby METAR Reports

 

KIAG - Niagara Falls, New York, USA
Distance from station: W 12mi, 20km
Updated: 05/17/2021 7:53pm
Clear
Clear
 Wind from NNE
Wind: NNE 3 mph , 6 km/h
Temperature: 73°F , 23°C
Dew Point: 43°F , 6°C
Humidity: 33%
Barometer: 1023.7 hPa
Clouds: Clear
Visibility: 10 miles , 16 km
2021/05/17 23:53 KIAG 172353Z 02003KT 10SM CLR 23/06 A3023 RMK AO2 SLP237 T02280061 10244 20222 53001
KBUF - Buffalo/Cheektow, New York, USA
Distance from station: S 13mi, 21km
Updated: 05/17/2021 7:54pm
Few Clouds
Few Clouds
 Wind from WSW
Wind: WSW 7 mph , 11 km/h
Temperature: 72°F , 22°C
Dew Point: 39°F , 4°C
Humidity: 31%
Barometer: 1024 hPa
Clouds: Few Clouds
Visibility: 10 miles , 16 km
Cloud details: Few Clouds 7000 ft
Few Clouds 27000 ft
2021/05/17 23:54 KBUF 172354Z 25006KT 10SM FEW070 FEW270 22/04 A3024 RMK AO2 SLP240 T02220044 10250 20222 53003 $
 
KROC - Rochester, New York, USA
Distance from station: E 51mi, 82km
Updated: 05/17/2021 7:54pm
Partly cloudy
Partly cloudy
 Wind from NNE
Wind: NNE 8 mph , 13 km/h
Temperature: 64°F , 18°C
Dew Point: 37°F , 3°C
Humidity: 37%
Barometer: 1024.4 hPa
Clouds: Partly cloudy
Visibility: 10 miles , 16 km
Cloud details: Few Clouds 5000 ft
Partly cloudy 25000 ft
2021/05/17 23:54 KROC 172354Z 03007KT 10SM FEW050 SCT250 18/03 A3025 RMK AO2 SLP246 T01830033 10239 20183 53004 $
CYSN - St. Catharines A, Ontario, Canada
Distance from station: WNW 25mi, 40km
Updated: 05/17/2021 8:00pm
Few Clouds
Few Clouds
 Wind from SW
Wind: SW 6 mph , 9 km/h
Temperature: 70°F , 21°C
Dew Point: 43°F , 6°C
Humidity: 38%
Barometer: 1023.4 hPa
Clouds: Few Clouds
Visibility: 15 miles , 24 km
Cloud details: Few Clouds 25000 ft
2021/05/18 00:00 CYSN 180000Z 23005KT 15SM FEW250 21/06 A3022 RMK CI2 SLP234 DENSITY ALT 800FT
 
KOLE - Olean, New York, USA
Distance from station: SSE 63mi, 102km
Updated: 05/17/2021 8:15pm
Partly cloudy
Partly cloudy
 Wind from NNW
Wind: NNW 5 mph , 7 km/h
Temperature: 61°F , 16°C
Dew Point: 39°F , 4°C
Humidity: 45%
Barometer: 1025.4 hPa
Clouds: Partly cloudy
Visibility: 10 miles , 16 km
Cloud details: Partly cloudy 8500 ft
2021/05/18 00:15 KOLE 180015Z AUTO 33004KT 10SM SCT085 16/04 A3028 RMK AO2
KJHW - Jamestown, New York, USA
Distance from station: SSW 74mi, 119km
Updated: 05/17/2021 7:56pm
Clear
Clear
 Wind from ESE
Wind: ESE 5 mph , 7 km/h
Temperature: 64°F , 18°C
Dew Point: 41°F , 5°C
Humidity: 43%
Barometer: 1025.7 hPa
Clouds: Clear
Visibility: 10 miles , 16 km
2021/05/17 23:56 KJHW 172356Z AUTO 12004KT 10SM CLR 18/05 A3029 RMK AO2 SLP261 T01780050 10222 20178 53009
 
CWWZ - Port Weller (mar, Ontario, Canada
Distance from station: WNW 28mi, 45km
Updated: 05/17/2021 8:00pm

 Wind from S
Wind: S 1 mph , 2 km/h
Temperature: 64°F , 18°C
Dew Point: 46°F , 8°C
Humidity: 52%
2021/05/18 00:00 CWWZ 180000Z AUTO 17001KT 18/08 RMK AO1 SLP237 T01790075 55002
CWPC - Port Colborne(Au, Ontario, Canada
Distance from station: WSW 33mi, 53km
Updated: 05/17/2021 8:00pm

 Wind from SW
Wind: SW 9 mph , 15 km/h
Temperature: 59°F , 15°C
Dew Point: 50°F , 10°C
Humidity: 72%
2021/05/18 00:00 CWPC 180000Z AUTO 22008KT 15/10 RMK AO1 SLP249 T01450101 53001
 
CXVN - Vineland (au8), Ontario, Canada
Distance from station: W 36mi, 58km
Updated: 05/17/2021 8:00pm

 Wind from SW
Wind: SW 3 mph , 6 km/h
Temperature: 70°F , 21°C
Dew Point: 43°F , 6°C
Humidity: 38%
2021/05/18 00:00 CXVN 180000Z AUTO 22003KT 21/06 RMK AO1 SLP229 T02120055 55002
CYTZ - Toronto Il Vor, Ontario, Canada
Distance from station: NW 50mi, 81km
Updated: 05/17/2021 8:00pm
Clear
Clear
 Wind from E
Wind: E 5 mph , 7 km/h
Temperature: 61°F , 16°C
Dew Point: 46°F , 8°C
Humidity: 59%
Barometer: 1023.4 hPa
Clouds: Clear
Visibility: 9 miles , 14 km
2021/05/18 00:00 CYTZ 180000Z AUTO 09004KT 9SM CLR 16/08 A3022 RMK SLP236
 
CXTO - Toronto City, Ontario, Canada
Distance from station: NW 52mi, 84km
Updated: 05/17/2021 8:00pm

 
Temperature: 70°F , 21°C
Dew Point: 41°F , 5°C
Humidity: 35%
2021/05/18 00:00 CXTO 180000Z AUTO 21/05 RMK AO1 SLP235 T02060050 55001
KDKK - Dunkirk, New York, USA
Distance from station: SW 52mi, 84km
Updated: 05/17/2021 7:53pm
Clear
Clear
 Wind from calm
Wind: Calm
Temperature: 70°F , 21°C
Dew Point: 39°F , 4°C
Humidity: 33%
Barometer: 1024.7 hPa
Clouds: Clear
Visibility: 10 miles , 16 km
2021/05/17 23:53 KDKK 172353Z AUTO 00000KT 10SM CLR 21/04 A3026 RMK AO2 SLP246 T02060044 10228 20206 55001 $
 
CYOO - Oshawa, Ontario, Canada
Distance from station: N 56mi, 90km
Updated: 05/17/2021 8:00pm
Clear
Clear
 Wind from S
Wind: S 5 mph , 7 km/h
Temperature: 64°F , 18°C
Dew Point: 43°F , 6°C
Humidity: 46%
Barometer: 1023.4 hPa
Clouds: Clear
Visibility: 9 miles , 14 km
2021/05/18 00:00 CYOO 180000Z AUTO 18004KT 9SM CLR 18/06 A3022 RMK SLP237 DENSITY ALT 700FT
CWWB - Burlington Piers, Ontario, Canada
Distance from station: WNW 56mi, 91km
Updated: 05/17/2021 8:00pm

 Wind from N
Wind: N 5 mph , 7 km/h
Temperature: 59°F , 15°C
Dew Point: 46°F , 8°C
Humidity: 63%
2021/05/18 00:00 CWWB 180000Z AUTO 35004KT 15/08 RMK AO1 SLP235 T01480077 55000
 
CYYZ - Toronto/Pearson, Ontario, Canada
Distance from station: NW 60mi, 96km
Updated: 05/17/2021 8:00pm
Few Clouds
Few Clouds
 Wind from SSE
Wind: SSE 6 mph , 9 km/h
Temperature: 66°F , 19°C
Dew Point: 45°F , 7°C
Humidity: 46%
Barometer: 1023.4 hPa
Clouds: Few Clouds
Visibility: 15 miles , 24 km
Cloud details: Few Clouds 9000 ft
2021/05/18 00:00 CYYZ 180000Z 16005KT 15SM FEW090 19/07 A3022 RMK AC1 SLP235 DENSITY ALT 900FT
CYKZ - Toronto Buttonvi, Ontario, Canada
Distance from station: NW 62mi, 99km
Updated: 01/03/2019 4:00am
NOT Current
Partly cloudy
Partly cloudy
 Wind from WSW
Wind: WSW 5 mph , 7 km/h
Temperature: 27°F , -3°C
Wind Chill: 21°F , -6°C
Dew Point: 23°F , -5°C
Humidity: 86%
Barometer: 1010.8 hPa
Clouds: Partly cloudy
Visibility: 15 miles , 24 km
Cloud details: Partly cloudy 4000 ft
2019/01/03 09:00 CYKZ 030900Z 25004KT 15SM SCT040 M03/M05 A2985 RMK SC3 LAST STFD OBS FAREWELL SLP118
 
CXHM - Hamilton Rbg Cs, Ontario, Canada
Distance from station: W 62mi, 100km
Updated: 05/17/2021 8:00pm

 Wind from SSW
Wind: SSW 1 mph , 2 km/h
Temperature: 68°F , 20°C
Dew Point: 45°F , 7°C
Humidity: 43%
2021/05/18 00:00 CXHM 180000Z AUTO 21001KT 20/07 RMK AO1 SLP235 T01990072 53001
KDSV - Dansville, New York, USA
Distance from station: SE 62mi, 100km
Updated: 05/17/2021 7:54pm
Mostly cloudy
Mostly cloudy
 Wind from NW
Wind: NW 14 mph , 22 km/h
Temperature: 70°F , 21°C
Dew Point: 43°F , 6°C
Humidity: 38%
Barometer: 1024 hPa
Clouds: Mostly cloudy
Visibility: 8 miles , 13 km
Cloud details: Mostly cloudy 10000 ft
2021/05/17 23:54 KDSV 172354Z AUTO 32012KT 8SM BKN100 21/06 A3024 RMK AO2 SLP247 T02110061 10250 20211 53007
 
CYHM - Hamilton Airport, Ontario, Canada
Distance from station: W 63mi, 101km
Updated: 05/17/2021 8:00pm
Few Clouds
Few Clouds
 Wind from S
Wind: S 6 mph , 9 km/h
Temperature: 66°F , 19°C
Dew Point: 45°F , 7°C
Humidity: 46%
Barometer: 1023.7 hPa
Clouds: Few Clouds
Visibility: 15 miles , 24 km
Cloud details: Few Clouds 5000 ft
Few Clouds 25000 ft
2021/05/18 00:00 CYHM 180000Z 19005KT 15SM FEW050 FEW250 19/07 A3023 RMK SC2CI1 CI TR SLP241 DENSITY ALT 1100FT
CWNC - Cobourg (mars), Ontario, Canada
Distance from station: NNE 63mi, 102km
Updated: 05/17/2021 8:00pm

 Wind from calm
Wind: Calm
Temperature: 61°F , 16°C
Dew Point: 50°F , 10°C
Humidity: 68%
2021/05/18 00:00 CWNC 180000Z AUTO 00000KT 16/10 RMK AO1 SLP233 T01600100 55001